RYR82JL EDDH-EGSS
Flight info
| Callsign | RYR82JL |
|---|---|
| Flight time | 1h 10m |
| Altitude | 36000 |
| Route | WSN5G WSN N125 EKNON DCT NOGRO M40 RINIS |
| Aircraft | B38M/M-SDE1FGHILORVWXY/HB1 |
Departure
| Time | 2026-04-22 10:06 |
|---|---|
| Airport | Hamburg Helmut Schmidt Airport (EDDH) |
Arrival
| Time | 2026-04-22 11:16 |
|---|---|
| Airport | London Stansted Airport (EGSS) |
| Time | Latitude | Longitude | Altitude | Speed | Heading |
|---|---|---|---|---|---|
| 2026-04-22 09:38 | 53.62968 | 10.00280 | 53 ft | 0 kts | 121° |
| 2026-04-22 09:58 | 53.62972 | 10.00268 | 53 ft | 4 kts | 121° |
| 2026-04-22 09:58 | 53.62986 | 10.00229 | 48 ft | 4 kts | 121° |
| 2026-04-22 09:59 | 53.62997 | 10.00202 | 49 ft | 4 kts | 151° |
| 2026-04-22 09:59 | 53.63016 | 10.00204 | 49 ft | 3 kts | 212° |
| 2026-04-22 09:59 | 53.63026 | 10.00215 | 50 ft | 0 kts | 212° |
| 2026-04-22 10:04 | 53.63015 | 10.00203 | 49 ft | 4 kts | 212° |
| 2026-04-22 10:04 | 53.62980 | 10.00166 | 53 ft | 8 kts | 212° |
| 2026-04-22 10:04 | 53.62916 | 10.00098 | 53 ft | 13 kts | 212° |
| 2026-04-22 10:04 | 53.62846 | 9.99965 | 53 ft | 18 kts | 243° |
| 2026-04-22 10:05 | 53.62828 | 9.99781 | 48 ft | 15 kts | 316° |
| 2026-04-22 10:05 | 53.63009 | 9.99621 | 51 ft | 60 kts | 332° |
| 2026-04-22 10:05 | 53.63589 | 9.99122 | 51 ft | 124 kts | 334° |
| 2026-04-22 10:05 | 53.64493 | 9.98327 | 173 ft | 161 kts | 329° |
| 2026-04-22 10:06 | 53.65491 | 9.97485 | 928 ft | 158 kts | 331° |
| 2026-04-22 10:06 | 53.66473 | 9.96596 | 1736 ft | 162 kts | 333° |
| 2026-04-22 10:06 | 53.67526 | 9.95720 | 2426 ft | 173 kts | 334° |
| 2026-04-22 10:06 | 53.68625 | 9.94797 | 3187 ft | 185 kts | 334° |
| 2026-04-22 10:07 | 53.69810 | 9.93767 | 3769 ft | 197 kts | 334° |
| 2026-04-22 10:07 | 53.70860 | 9.92183 | 4298 ft | 213 kts | 303° |
| 2026-04-22 10:07 | 53.71313 | 9.89735 | 4780 ft | 234 kts | 275° |
| 2026-04-22 10:07 | 53.70992 | 9.86929 | 5381 ft | 252 kts | 252° |
| 2026-04-22 10:08 | 53.70423 | 9.84119 | 6226 ft | 255 kts | 253° |
| 2026-04-22 10:08 | 53.69855 | 9.81239 | 6985 ft | 262 kts | 253° |
| 2026-04-22 10:08 | 53.69278 | 9.78317 | 7810 ft | 262 kts | 253° |
| 2026-04-22 10:08 | 53.68696 | 9.75354 | 8503 ft | 269 kts | 253° |
| 2026-04-22 10:09 | 53.68095 | 9.72302 | 9176 ft | 280 kts | 253° |
| 2026-04-22 10:09 | 53.67469 | 9.69114 | 9706 ft | 294 kts | 253° |
| 2026-04-22 10:09 | 53.66810 | 9.65779 | 10345 ft | 301 kts | 253° |
| 2026-04-22 10:09 | 53.66144 | 9.62410 | 11025 ft | 309 kts | 253° |
| 2026-04-22 10:10 | 53.65429 | 9.58889 | 11450 ft | 325 kts | 249° |
| 2026-04-22 10:10 | 53.64227 | 9.55586 | 12015 ft | 336 kts | 234° |
| 2026-04-22 10:10 | 53.62850 | 9.52355 | 12726 ft | 341 kts | 235° |
| 2026-04-22 10:10 | 53.61464 | 9.49097 | 13560 ft | 345 kts | 235° |
| 2026-04-22 10:11 | 53.60050 | 9.45793 | 14309 ft | 350 kts | 235° |
| 2026-04-22 10:11 | 53.58611 | 9.42443 | 15033 ft | 355 kts | 235° |
| 2026-04-22 10:11 | 53.57156 | 9.39060 | 15751 ft | 360 kts | 235° |
| 2026-04-22 10:11 | 53.55680 | 9.35634 | 16483 ft | 364 kts | 234° |
| 2026-04-22 10:12 | 53.54200 | 9.32202 | 17182 ft | 369 kts | 234° |
| 2026-04-22 10:12 | 53.52681 | 9.28687 | 17861 ft | 374 kts | 234° |
| 2026-04-22 10:12 | 53.51125 | 9.25089 | 18539 ft | 379 kts | 234° |
| 2026-04-22 10:12 | 53.49563 | 9.21484 | 19122 ft | 383 kts | 234° |
| 2026-04-22 10:13 | 53.47984 | 9.17845 | 19710 ft | 387 kts | 234° |
| 2026-04-22 10:13 | 53.46389 | 9.14175 | 20267 ft | 391 kts | 234° |
| 2026-04-22 10:13 | 53.44799 | 9.10521 | 20840 ft | 395 kts | 234° |
| 2026-04-22 10:13 | 53.43171 | 9.06785 | 21385 ft | 398 kts | 234° |
| 2026-04-22 10:14 | 53.41527 | 9.03017 | 21944 ft | 402 kts | 234° |
| 2026-04-22 10:14 | 53.39866 | 8.99217 | 22479 ft | 406 kts | 234° |
| 2026-04-22 10:14 | 53.38188 | 8.95385 | 23034 ft | 410 kts | 234° |
| 2026-04-22 10:14 | 53.36495 | 8.91523 | 23598 ft | 413 kts | 234° |
| 2026-04-22 10:15 | 53.34862 | 8.87539 | 24094 ft | 416 kts | 244° |
| 2026-04-22 10:15 | 53.33784 | 8.83059 | 24586 ft | 416 kts | 251° |
| 2026-04-22 10:15 | 53.32761 | 8.78505 | 25016 ft | 421 kts | 251° |
| 2026-04-22 10:15 | 53.31729 | 8.73903 | 25509 ft | 423 kts | 251° |
| 2026-04-22 10:16 | 53.30699 | 8.69281 | 25968 ft | 426 kts | 251° |
| 2026-04-22 10:16 | 53.29675 | 8.64628 | 26426 ft | 428 kts | 251° |
| 2026-04-22 10:16 | 53.28646 | 8.59931 | 26877 ft | 431 kts | 251° |
| 2026-04-22 10:16 | 53.27611 | 8.55219 | 27329 ft | 434 kts | 251° |
| 2026-04-22 10:17 | 53.26579 | 8.50459 | 27757 ft | 436 kts | 253° |
| 2026-04-22 10:17 | 53.25679 | 8.45603 | 28185 ft | 439 kts | 254° |
| 2026-04-22 10:17 | 53.24766 | 8.40727 | 28604 ft | 441 kts | 253° |
| 2026-04-22 10:17 | 53.23838 | 8.35844 | 29038 ft | 444 kts | 253° |
| 2026-04-22 10:18 | 53.22898 | 8.30917 | 29437 ft | 446 kts | 253° |
| 2026-04-22 10:18 | 53.21949 | 8.25963 | 29833 ft | 449 kts | 253° |
| 2026-04-22 10:18 | 53.20994 | 8.20994 | 30231 ft | 452 kts | 253° |
| 2026-04-22 10:18 | 53.20031 | 8.15993 | 30597 ft | 454 kts | 253° |
| 2026-04-22 10:19 | 53.19073 | 8.10962 | 30919 ft | 456 kts | 253° |
| 2026-04-22 10:19 | 53.18123 | 8.05899 | 31259 ft | 458 kts | 253° |
| 2026-04-22 10:19 | 53.17167 | 8.00829 | 31605 ft | 459 kts | 253° |
| 2026-04-22 10:19 | 53.16205 | 7.95747 | 31950 ft | 461 kts | 253° |
| 2026-04-22 10:20 | 53.15237 | 7.90644 | 32265 ft | 463 kts | 253° |
| 2026-04-22 10:20 | 53.14276 | 7.85597 | 32583 ft | 464 kts | 253° |
| 2026-04-22 10:20 | 53.13285 | 7.80403 | 32912 ft | 466 kts | 253° |
| 2026-04-22 10:20 | 53.12311 | 7.75312 | 33216 ft | 468 kts | 253° |
| 2026-04-22 10:21 | 53.11320 | 7.70148 | 33521 ft | 469 kts | 253° |
| 2026-04-22 10:21 | 53.10323 | 7.64966 | 33852 ft | 470 kts | 253° |
| 2026-04-22 10:21 | 53.09325 | 7.59797 | 34286 ft | 469 kts | 253° |
| 2026-04-22 10:21 | 53.08326 | 7.54641 | 34689 ft | 467 kts | 253° |
| 2026-04-22 10:22 | 53.07332 | 7.49520 | 35023 ft | 466 kts | 253° |
| 2026-04-22 10:22 | 53.06333 | 7.44390 | 35331 ft | 466 kts | 253° |
| 2026-04-22 10:22 | 53.05335 | 7.39276 | 35654 ft | 465 kts | 253° |
| 2026-04-22 10:22 | 53.04337 | 7.34177 | 35975 ft | 464 kts | 253° |
| 2026-04-22 10:23 | 53.03336 | 7.29081 | 36286 ft | 464 kts | 253° |
| 2026-04-22 10:23 | 53.02335 | 7.23987 | 36417 ft | 464 kts | 253° |
| 2026-04-22 10:23 | 53.00285 | 7.13857 | 36410 ft | 461 kts | 253° |
| 2026-04-22 10:24 | 52.98233 | 7.03769 | 36410 ft | 461 kts | 252° |
| 2026-04-22 10:24 | 52.96175 | 6.93705 | 36417 ft | 461 kts | 252° |
| 2026-04-22 10:25 | 52.94458 | 6.85348 | 36417 ft | 460 kts | 252° |
| 2026-04-22 10:25 | 52.92390 | 6.75323 | 36419 ft | 460 kts | 252° |
| 2026-04-22 10:26 | 52.90311 | 6.65299 | 36413 ft | 459 kts | 252° |
| 2026-04-22 10:26 | 52.88230 | 6.55312 | 36419 ft | 459 kts | 252° |
| 2026-04-22 10:27 | 52.86139 | 6.45331 | 36410 ft | 458 kts | 252° |
| 2026-04-22 10:27 | 52.84044 | 6.35372 | 36402 ft | 458 kts | 252° |
| 2026-04-22 10:28 | 52.81945 | 6.25440 | 36405 ft | 458 kts | 252° |
| 2026-04-22 10:28 | 52.79840 | 6.15524 | 36416 ft | 457 kts | 252° |
| 2026-04-22 10:29 | 52.77729 | 6.05626 | 36399 ft | 457 kts | 252° |
| 2026-04-22 10:29 | 52.75203 | 5.95987 | 36401 ft | 457 kts | 247° |
| 2026-04-22 10:30 | 52.72648 | 5.86469 | 36388 ft | 457 kts | 248° |
| 2026-04-22 10:30 | 52.70089 | 5.76896 | 36399 ft | 456 kts | 248° |
| 2026-04-22 10:31 | 52.67525 | 5.67334 | 36392 ft | 456 kts | 248° |
| 2026-04-22 10:31 | 52.64955 | 5.57794 | 36400 ft | 455 kts | 248° |
| 2026-04-22 10:32 | 52.62380 | 5.48271 | 36398 ft | 455 kts | 247° |
| 2026-04-22 10:32 | 52.59799 | 5.38767 | 36403 ft | 455 kts | 247° |
| 2026-04-22 10:33 | 52.57212 | 5.29279 | 36398 ft | 454 kts | 247° |
| 2026-04-22 10:33 | 52.54620 | 5.19813 | 36402 ft | 454 kts | 247° |
| 2026-04-22 10:34 | 52.52023 | 5.10366 | 36396 ft | 454 kts | 247° |
| 2026-04-22 10:34 | 52.49417 | 5.00924 | 36405 ft | 454 kts | 247° |
| 2026-04-22 10:35 | 52.46805 | 4.91501 | 36397 ft | 453 kts | 247° |
| 2026-04-22 10:35 | 52.44192 | 4.82111 | 36404 ft | 453 kts | 247° |
| 2026-04-22 10:36 | 52.41572 | 4.72732 | 36397 ft | 452 kts | 247° |
| 2026-04-22 10:36 | 52.38963 | 4.63434 | 36403 ft | 452 kts | 247° |
| 2026-04-22 10:37 | 52.35020 | 4.49448 | 36396 ft | 451 kts | 247° |
| 2026-04-22 10:38 | 52.32385 | 4.40146 | 36388 ft | 451 kts | 247° |
| 2026-04-22 10:38 | 52.29746 | 4.30868 | 36390 ft | 450 kts | 247° |
| 2026-04-22 10:39 | 52.27100 | 4.21604 | 36386 ft | 450 kts | 246° |
| 2026-04-22 10:39 | 52.24449 | 4.12355 | 36381 ft | 449 kts | 247° |
| 2026-04-22 10:40 | 52.21797 | 4.03144 | 36383 ft | 448 kts | 247° |
| 2026-04-22 10:40 | 52.19144 | 3.93961 | 36384 ft | 448 kts | 246° |
| 2026-04-22 10:41 | 52.16485 | 3.84795 | 36381 ft | 447 kts | 246° |
| 2026-04-22 10:41 | 52.13821 | 3.75645 | 36383 ft | 447 kts | 246° |
| 2026-04-22 10:42 | 52.11172 | 3.66585 | 36317 ft | 437 kts | 247° |
| 2026-04-22 10:42 | 52.09874 | 3.62154 | 36164 ft | 430 kts | 247° |
| 2026-04-22 10:42 | 52.08593 | 3.57792 | 35783 ft | 425 kts | 247° |
| 2026-04-22 10:42 | 52.07320 | 3.53466 | 35287 ft | 423 kts | 247° |
| 2026-04-22 10:43 | 52.06049 | 3.49156 | 34782 ft | 422 kts | 247° |
| 2026-04-22 10:43 | 52.04787 | 3.44878 | 34289 ft | 419 kts | 247° |
| 2026-04-22 10:43 | 52.03529 | 3.40622 | 33759 ft | 417 kts | 246° |
| 2026-04-22 10:43 | 52.02279 | 3.36399 | 33269 ft | 413 kts | 246° |
| 2026-04-22 10:44 | 52.01040 | 3.32218 | 32814 ft | 409 kts | 246° |
| 2026-04-22 10:44 | 51.99810 | 3.28079 | 32362 ft | 405 kts | 246° |
| 2026-04-22 10:44 | 51.98592 | 3.23982 | 31908 ft | 402 kts | 246° |
| 2026-04-22 10:44 | 51.97383 | 3.19918 | 31453 ft | 398 kts | 247° |
| 2026-04-22 10:45 | 51.96504 | 3.15704 | 30906 ft | 393 kts | 265° |
| 2026-04-22 10:45 | 51.96296 | 3.11329 | 30471 ft | 388 kts | 266° |
| 2026-04-22 10:45 | 51.96005 | 3.06987 | 29976 ft | 385 kts | 266° |
| 2026-04-22 10:45 | 51.95717 | 3.02752 | 29523 ft | 381 kts | 266° |
| 2026-04-22 10:46 | 51.95427 | 2.98506 | 29092 ft | 377 kts | 266° |
| 2026-04-22 10:46 | 51.95141 | 2.94309 | 28657 ft | 373 kts | 265° |
| 2026-04-22 10:46 | 51.94856 | 2.90145 | 28240 ft | 370 kts | 265° |
| 2026-04-22 10:46 | 51.94571 | 2.86021 | 27828 ft | 367 kts | 265° |
| 2026-04-22 10:47 | 51.94285 | 2.81896 | 27404 ft | 369 kts | 265° |
| 2026-04-22 10:47 | 51.93997 | 2.77775 | 26978 ft | 369 kts | 265° |
| 2026-04-22 10:47 | 51.93708 | 2.73643 | 26560 ft | 368 kts | 265° |
| 2026-04-22 10:47 | 51.93418 | 2.69530 | 26148 ft | 367 kts | 264° |
| 2026-04-22 10:48 | 51.93136 | 2.65433 | 25698 ft | 367 kts | 265° |
| 2026-04-22 10:48 | 51.92855 | 2.61320 | 25269 ft | 367 kts | 264° |
| 2026-04-22 10:48 | 51.92572 | 2.57208 | 24879 ft | 366 kts | 264° |
| 2026-04-22 10:48 | 51.92290 | 2.53118 | 24478 ft | 366 kts | 264° |
| 2026-04-22 10:49 | 51.92005 | 2.49018 | 24061 ft | 366 kts | 264° |
| 2026-04-22 10:49 | 51.91718 | 2.44923 | 23582 ft | 366 kts | 264° |
| 2026-04-22 10:49 | 51.91432 | 2.40841 | 23124 ft | 363 kts | 264° |
| 2026-04-22 10:49 | 51.91147 | 2.36801 | 22713 ft | 360 kts | 264° |
| 2026-04-22 10:50 | 51.90871 | 2.32798 | 22350 ft | 355 kts | 266° |
| 2026-04-22 10:50 | 51.90783 | 2.28816 | 21925 ft | 352 kts | 269° |
| 2026-04-22 10:50 | 51.90707 | 2.24877 | 21559 ft | 348 kts | 269° |
| 2026-04-22 10:50 | 51.90620 | 2.20983 | 21208 ft | 345 kts | 268° |
| 2026-04-22 10:51 | 51.90525 | 2.17110 | 20838 ft | 345 kts | 268° |
| 2026-04-22 10:51 | 51.90427 | 2.13230 | 20469 ft | 345 kts | 268° |
| 2026-04-22 10:51 | 51.90327 | 2.09351 | 20107 ft | 345 kts | 268° |
| 2026-04-22 10:51 | 51.90224 | 2.05468 | 19740 ft | 345 kts | 268° |
| 2026-04-22 10:52 | 51.90121 | 2.01583 | 19361 ft | 344 kts | 268° |
| 2026-04-22 10:52 | 51.90017 | 1.97774 | 19003 ft | 343 kts | 268° |
| 2026-04-22 10:52 | 51.89912 | 1.93925 | 18635 ft | 340 kts | 268° |
| 2026-04-22 10:52 | 51.89885 | 1.90124 | 18235 ft | 336 kts | 278° |
| 2026-04-22 10:53 | 51.90562 | 1.86569 | 17934 ft | 326 kts | 299° |
| 2026-04-22 10:53 | 51.91584 | 1.83328 | 17678 ft | 323 kts | 300° |
| 2026-04-22 10:53 | 51.92622 | 1.80073 | 17389 ft | 326 kts | 300° |
| 2026-04-22 10:53 | 51.93671 | 1.76826 | 17108 ft | 325 kts | 300° |
| 2026-04-22 10:54 | 51.94729 | 1.73585 | 16821 ft | 324 kts | 300° |
| 2026-04-22 10:54 | 51.95781 | 1.70376 | 16536 ft | 322 kts | 301° |
| 2026-04-22 10:54 | 51.96832 | 1.67174 | 16252 ft | 321 kts | 300° |
| 2026-04-22 10:54 | 51.97880 | 1.63984 | 15970 ft | 320 kts | 300° |
| 2026-04-22 10:55 | 51.98921 | 1.60810 | 15685 ft | 319 kts | 301° |
| 2026-04-22 10:55 | 51.99959 | 1.57641 | 15382 ft | 317 kts | 301° |
| 2026-04-22 10:55 | 52.00993 | 1.54481 | 15124 ft | 316 kts | 301° |
| 2026-04-22 10:55 | 52.02023 | 1.51331 | 14850 ft | 315 kts | 301° |
| 2026-04-22 10:56 | 52.03048 | 1.48193 | 14575 ft | 314 kts | 300° |
| 2026-04-22 10:56 | 52.04068 | 1.45064 | 14295 ft | 313 kts | 301° |
| 2026-04-22 10:56 | 52.05084 | 1.41943 | 13985 ft | 312 kts | 300° |
| 2026-04-22 10:56 | 52.06098 | 1.38826 | 13702 ft | 311 kts | 301° |
| 2026-04-22 10:57 | 52.07107 | 1.35720 | 13411 ft | 310 kts | 300° |
| 2026-04-22 10:57 | 52.08111 | 1.32624 | 13140 ft | 309 kts | 300° |
| 2026-04-22 10:57 | 52.09111 | 1.29536 | 12853 ft | 308 kts | 300° |
| 2026-04-22 10:57 | 52.10108 | 1.26457 | 12602 ft | 307 kts | 300° |
| 2026-04-22 10:58 | 52.11078 | 1.23385 | 12366 ft | 306 kts | 295° |
| 2026-04-22 10:58 | 52.11500 | 1.20002 | 12079 ft | 308 kts | 268° |
| 2026-04-22 10:58 | 52.11104 | 1.16610 | 11914 ft | 305 kts | 254° |
| 2026-04-22 10:58 | 52.10563 | 1.13254 | 11723 ft | 307 kts | 255° |
| 2026-04-22 10:59 | 52.10020 | 1.09909 | 11514 ft | 305 kts | 254° |
| 2026-04-22 10:59 | 52.09472 | 1.06583 | 11303 ft | 305 kts | 254° |
| 2026-04-22 10:59 | 52.08920 | 1.03259 | 11082 ft | 304 kts | 254° |
| 2026-04-22 10:59 | 52.08369 | 0.99952 | 10883 ft | 302 kts | 254° |
| 2026-04-22 11:00 | 52.07820 | 0.96663 | 10678 ft | 301 kts | 253° |
| 2026-04-22 11:00 | 52.07270 | 0.93384 | 10471 ft | 300 kts | 253° |
| 2026-04-22 11:00 | 52.06723 | 0.90122 | 10258 ft | 298 kts | 253° |
| 2026-04-22 11:00 | 52.06207 | 0.87052 | 10050 ft | 296 kts | 253° |
| 2026-04-22 11:01 | 52.05665 | 0.83839 | 9833 ft | 295 kts | 253° |
| 2026-04-22 11:01 | 52.05125 | 0.80635 | 9615 ft | 294 kts | 253° |
| 2026-04-22 11:01 | 52.04584 | 0.77437 | 9425 ft | 292 kts | 253° |
| 2026-04-22 11:01 | 52.04047 | 0.74263 | 9221 ft | 292 kts | 253° |
| 2026-04-22 11:02 | 52.03509 | 0.71095 | 9018 ft | 289 kts | 253° |
| 2026-04-22 11:02 | 52.02980 | 0.67989 | 8827 ft | 282 kts | 253° |
| 2026-04-22 11:02 | 52.02466 | 0.64968 | 8634 ft | 274 kts | 253° |
| 2026-04-22 11:02 | 52.01966 | 0.62025 | 8458 ft | 266 kts | 253° |
| 2026-04-22 11:03 | 52.01595 | 0.59126 | 8356 ft | 263 kts | 266° |
| 2026-04-22 11:03 | 52.01585 | 0.56136 | 8217 ft | 265 kts | 270° |
| 2026-04-22 11:03 | 52.01593 | 0.53139 | 8100 ft | 266 kts | 270° |
| 2026-04-22 11:03 | 52.01597 | 0.50138 | 7991 ft | 265 kts | 270° |
| 2026-04-22 11:04 | 52.01595 | 0.47152 | 7862 ft | 264 kts | 270° |
| 2026-04-22 11:04 | 52.01591 | 0.44173 | 7748 ft | 264 kts | 270° |
| 2026-04-22 11:04 | 52.01584 | 0.41201 | 7643 ft | 264 kts | 270° |
| 2026-04-22 11:04 | 52.01578 | 0.38224 | 7547 ft | 263 kts | 270° |
| 2026-04-22 11:05 | 52.01571 | 0.35257 | 7443 ft | 263 kts | 270° |
| 2026-04-22 11:05 | 52.01565 | 0.32293 | 7336 ft | 262 kts | 270° |
| 2026-04-22 11:05 | 52.01555 | 0.29335 | 7198 ft | 262 kts | 269° |
| 2026-04-22 11:05 | 52.01545 | 0.26387 | 7090 ft | 261 kts | 270° |
| 2026-04-22 11:06 | 52.01535 | 0.23445 | 7020 ft | 261 kts | 269° |
| 2026-04-22 11:06 | 52.01522 | 0.20500 | 6906 ft | 260 kts | 269° |
| 2026-04-22 11:06 | 52.01511 | 0.17549 | 6658 ft | 262 kts | 270° |
| 2026-04-22 11:06 | 52.01499 | 0.14584 | 6377 ft | 262 kts | 269° |
| 2026-04-22 11:07 | 52.01486 | 0.11650 | 6203 ft | 258 kts | 270° |
| 2026-04-22 11:07 | 52.01473 | 0.08766 | 6080 ft | 253 kts | 270° |
| 2026-04-22 11:07 | 52.01421 | 0.05943 | 5936 ft | 256 kts | 263° |
| 2026-04-22 11:07 | 52.00905 | 0.03190 | 5608 ft | 256 kts | 236° |
| 2026-04-22 11:08 | 51.99717 | 0.01140 | 5338 ft | 247 kts | 209° |
| 2026-04-22 11:08 | 51.98181 | 0.00085 | 5089 ft | 236 kts | 185° |
| 2026-04-22 11:08 | 51.96585 | 0.00083 | 4823 ft | 225 kts | 163° |
| 2026-04-22 11:08 | 51.95175 | 0.00998 | 4634 ft | 215 kts | 142° |
| 2026-04-22 11:09 | 51.93942 | 0.02315 | 4432 ft | 210 kts | 143° |
| 2026-04-22 11:09 | 51.92603 | 0.03200 | 4245 ft | 216 kts | 169° |
| 2026-04-22 11:09 | 51.91049 | 0.02957 | 4011 ft | 233 kts | 187° |
| 2026-04-22 11:09 | 51.89441 | 0.02404 | 4013 ft | 239 kts | 188° |
| 2026-04-22 11:10 | 51.87811 | 0.01825 | 4009 ft | 241 kts | 188° |
| 2026-04-22 11:10 | 51.86165 | 0.01223 | 3982 ft | 242 kts | 189° |
| 2026-04-22 11:10 | 51.84534 | 0.00548 | 3993 ft | 242 kts | 190° |
| 2026-04-22 11:10 | 51.82915 | -0.00148 | 3822 ft | 241 kts | 191° |
| 2026-04-22 11:11 | 51.81295 | -0.00857 | 3586 ft | 242 kts | 191° |
| 2026-04-22 11:11 | 51.79686 | -0.01556 | 3278 ft | 237 kts | 188° |
| 2026-04-22 11:11 | 51.78125 | -0.01480 | 3150 ft | 217 kts | 155° |
| 2026-04-22 11:11 | 51.76970 | -0.00154 | 2990 ft | 197 kts | 121° |
| 2026-04-22 11:12 | 51.76597 | 0.01822 | 2875 ft | 181 kts | 84° |
| 2026-04-22 11:12 | 51.77005 | 0.03773 | 2888 ft | 190 kts | 66° |
| 2026-04-22 11:12 | 51.77604 | 0.05703 | 2876 ft | 195 kts | 62° |
| 2026-04-22 11:12 | 51.78331 | 0.07557 | 2822 ft | 196 kts | 57° |
| 2026-04-22 11:13 | 51.79172 | 0.09294 | 2549 ft | 196 kts | 51° |
| 2026-04-22 11:13 | 51.80079 | 0.10863 | 2460 ft | 183 kts | 47° |
| 2026-04-22 11:13 | 51.80964 | 0.12206 | 2277 ft | 167 kts | 46° |
| 2026-04-22 11:13 | 51.81770 | 0.13398 | 2106 ft | 149 kts | 46° |
| 2026-04-22 11:14 | 51.82500 | 0.14495 | 1892 ft | 136 kts | 47° |
| 2026-04-22 11:14 | 51.83175 | 0.15501 | 1724 ft | 132 kts | 46° |
| 2026-04-22 11:14 | 51.83836 | 0.16496 | 1516 ft | 132 kts | 47° |
| 2026-04-22 11:14 | 51.84508 | 0.17511 | 1286 ft | 131 kts | 46° |
| 2026-04-22 11:15 | 51.85201 | 0.18469 | 1099 ft | 135 kts | 46° |
| 2026-04-22 11:15 | 51.85926 | 0.19559 | 916 ft | 146 kts | 50° |
| 2026-04-22 11:15 | 51.86646 | 0.20685 | 677 ft | 143 kts | 48° |
| 2026-04-22 11:15 | 51.87371 | 0.21766 | 456 ft | 140 kts | 47° |
| 2026-04-22 11:16 | 51.88056 | 0.22802 | 347 ft | 123 kts | 47° |
| 2026-04-22 11:16 | 51.88410 | 0.23354 | 345 ft | 88 kts | 42° |
| 2026-04-22 11:16 | 51.88733 | 0.23831 | 338 ft | 47 kts | 45° |
| 2026-04-22 11:16 | 51.88871 | 0.24174 | 349 ft | 32 kts | 69° |
| 2026-04-22 11:17 | 51.88921 | 0.24463 | 353 ft | 14 kts | 93° |
| 2026-04-22 11:17 | 51.88919 | 0.24591 | 358 ft | 10 kts | 49° |
| 2026-04-22 11:17 | 51.88975 | 0.24677 | 351 ft | 12 kts | 42° |
| 2026-04-22 11:17 | 51.89042 | 0.24782 | 354 ft | 15 kts | 44° |
| 2026-04-22 11:18 | 51.89126 | 0.24903 | 354 ft | 17 kts | 46° |
| 2026-04-22 11:18 | 51.89216 | 0.25047 | 351 ft | 19 kts | 56° |
| 2026-04-22 11:18 | 51.89299 | 0.25229 | 354 ft | 21 kts | 41° |
| 2026-04-22 11:18 | 51.89404 | 0.25404 | 359 ft | 21 kts | 47° |
| 2026-04-22 11:19 | 51.89389 | 0.25532 | 358 ft | 12 kts | 133° |
| 2026-04-22 11:19 | 51.89325 | 0.25644 | 351 ft | 15 kts | 133° |
| 2026-04-22 11:19 | 51.89248 | 0.25776 | 356 ft | 15 kts | 132° |
| 2026-04-22 11:19 | 51.89216 | 0.25814 | 357 ft | 3 kts | 191° |
| 2026-04-22 11:20 | 51.89184 | 0.25770 | 351 ft | 11 kts | 223° |
| 2026-04-22 11:20 | 51.89165 | 0.25742 | 357 ft | 0 kts | 222° |